sensor_id;sensor_type;location;lat;lon;timestamp;P1;durP1;ratioP1;P2;durP2;ratioP2
5900;SDS011;2976;49.764;9.796;2023-08-07T00:01:46;1.47;;;0.70;;
5900;SDS011;2976;49.764;9.796;2023-08-07T00:04:12;0.90;;;0.70;;
5900;SDS011;2976;49.764;9.796;2023-08-07T00:06:37;3.70;;;0.80;;
5900;SDS011;2976;49.764;9.796;2023-08-07T00:09:03;0.70;;;0.60;;
5900;SDS011;2976;49.764;9.796;2023-08-07T00:11:30;2.43;;;0.90;;
5900;SDS011;2976;49.764;9.796;2023-08-07T00:13:57;2.77;;;0.90;;
5900;SDS011;2976;49.764;9.796;2023-08-07T00:16:23;1.23;;;0.63;;
5900;SDS011;2976;49.764;9.796;2023-08-07T00:18:48;3.70;;;0.90;;
5900;SDS011;2976;49.764;9.796;2023-08-07T00:21:14;1.10;;;1.03;;
5900;SDS011;2976;49.764;9.796;2023-08-07T00:23:40;0.93;;;0.70;;
5900;SDS011;2976;49.764;9.796;2023-08-07T00:26:05;2.50;;;0.90;;
5900;SDS011;2976;49.764;9.796;2023-08-07T00:28:31;1.40;;;1.27;;
5900;SDS011;2976;49.764;9.796;2023-08-07T00:30:56;5.63;;;1.10;;
5900;SDS011;2976;49.764;9.796;2023-08-07T00:33:22;0.93;;;0.77;;
5900;SDS011;2976;49.764;9.796;2023-08-07T00:35:47;5.50;;;2.00;;
5900;SDS011;2976;49.764;9.796;2023-08-07T00:38:13;3.20;;;0.70;;
5900;SDS011;2976;49.764;9.796;2023-08-07T00:40:39;0.87;;;0.70;;
5900;SDS011;2976;49.764;9.796;2023-08-07T00:43:06;0.90;;;0.80;;
5900;SDS011;2976;49.764;9.796;2023-08-07T00:45:40;1.20;;;0.80;;
5900;SDS011;2976;49.764;9.796;2023-08-07T00:48:10;0.90;;;0.80;;
5900;SDS011;2976;49.764;9.796;2023-08-07T00:50:37;2.40;;;1.20;;
5900;SDS011;2976;49.764;9.796;2023-08-07T00:53:03;0.87;;;0.60;;
5900;SDS011;2976;49.764;9.796;2023-08-07T00:55:29;0.87;;;0.87;;
5900;SDS011;2976;49.764;9.796;2023-08-07T00:57:56;1.23;;;1.00;;
5900;SDS011;2976;49.764;9.796;2023-08-07T01:00:23;3.27;;;1.00;;
5900;SDS011;2976;49.764;9.796;2023-08-07T01:02:49;2.33;;;0.90;;
5900;SDS011;2976;49.764;9.796;2023-08-07T01:05:16;5.20;;;0.93;;
5900;SDS011;2976;49.764;9.796;2023-08-07T01:07:43;4.73;;;1.10;;
5900;SDS011;2976;49.764;9.796;2023-08-07T01:10:11;7.80;;;1.00;;
5900;SDS011;2976;49.764;9.796;2023-08-07T01:12:40;3.13;;;0.93;;
5900;SDS011;2976;49.764;9.796;2023-08-07T01:15:14;6.60;;;1.00;;
5900;SDS011;2976;49.764;9.796;2023-08-07T01:17:43;1.07;;;0.97;;
5900;SDS011;2976;49.764;9.796;2023-08-07T01:20:10;4.00;;;1.17;;
5900;SDS011;2976;49.764;9.796;2023-08-07T01:22:36;2.60;;;1.20;;
5900;SDS011;2976;49.764;9.796;2023-08-07T01:25:02;1.57;;;0.90;;
5900;SDS011;2976;49.764;9.796;2023-08-07T01:35:22;3.50;;;1.03;;
5900;SDS011;2976;49.764;9.796;2023-08-07T01:37:51;1.53;;;1.40;;
5900;SDS011;2976;49.764;9.796;2023-08-07T01:40:19;1.87;;;0.90;;
5900;SDS011;2976;49.764;9.796;2023-08-07T01:42:46;5.57;;;1.00;;
5900;SDS011;2976;49.764;9.796;2023-08-07T01:45:12;2.90;;;0.80;;
5900;SDS011;2976;49.764;9.796;2023-08-07T01:47:38;1.40;;;0.70;;
5900;SDS011;2976;49.764;9.796;2023-08-07T01:50:04;2.00;;;1.20;;
5900;SDS011;2976;49.764;9.796;2023-08-07T01:52:30;1.87;;;1.00;;
5900;SDS011;2976;49.764;9.796;2023-08-07T01:54:56;0.60;;;0.60;;
5900;SDS011;2976;49.764;9.796;2023-08-07T01:57:21;1.30;;;1.00;;
5900;SDS011;2976;49.764;9.796;2023-08-07T01:59:47;1.13;;;0.83;;
5900;SDS011;2976;49.764;9.796;2023-08-07T02:02:12;1.30;;;0.90;;
5900;SDS011;2976;49.764;9.796;2023-08-07T02:04:38;1.50;;;0.90;;
5900;SDS011;2976;49.764;9.796;2023-08-07T02:07:03;1.90;;;1.00;;
5900;SDS011;2976;49.764;9.796;2023-08-07T02:09:29;2.23;;;0.80;;
5900;SDS011;2976;49.764;9.796;2023-08-07T02:11:55;2.10;;;1.37;;
5900;SDS011;2976;49.764;9.796;2023-08-07T02:14:20;1.50;;;1.40;;
5900;SDS011;2976;49.764;9.796;2023-08-07T02:16:46;4.47;;;1.60;;
5900;SDS011;2976;49.764;9.796;2023-08-07T02:19:11;3.00;;;0.70;;
5900;SDS011;2976;49.764;9.796;2023-08-07T02:21:37;3.50;;;1.10;;
5900;SDS011;2976;49.764;9.796;2023-08-07T02:24:02;1.10;;;1.00;;
5900;SDS011;2976;49.764;9.796;2023-08-07T02:26:28;5.67;;;1.43;;
5900;SDS011;2976;49.764;9.796;2023-08-07T02:28:54;2.90;;;1.03;;
5900;SDS011;2976;49.764;9.796;2023-08-07T02:31:19;1.80;;;1.20;;
5900;SDS011;2976;49.764;9.796;2023-08-07T02:33:45;6.60;;;1.53;;
5900;SDS011;2976;49.764;9.796;2023-08-07T02:36:10;4.67;;;1.70;;
5900;SDS011;2976;49.764;9.796;2023-08-07T02:38:36;2.40;;;1.50;;
5900;SDS011;2976;49.764;9.796;2023-08-07T02:41:01;7.57;;;1.57;;
5900;SDS011;2976;49.764;9.796;2023-08-07T02:43:27;3.17;;;1.60;;
5900;SDS011;2976;49.764;9.796;2023-08-07T02:45:53;5.27;;;1.30;;
5900;SDS011;2976;49.764;9.796;2023-08-07T02:48:19;17.57;;;2.10;;
5900;SDS011;2976;49.764;9.796;2023-08-07T02:50:44;3.30;;;1.60;;
5900;SDS011;2976;49.764;9.796;2023-08-07T02:53:10;2.67;;;1.50;;
5900;SDS011;2976;49.764;9.796;2023-08-07T02:55:36;5.00;;;1.60;;
5900;SDS011;2976;49.764;9.796;2023-08-07T02:58:02;2.50;;;1.53;;
5900;SDS011;2976;49.764;9.796;2023-08-07T03:00:27;3.93;;;2.33;;
5900;SDS011;2976;49.764;9.796;2023-08-07T03:02:53;3.90;;;1.90;;
5900;SDS011;2976;49.764;9.796;2023-08-07T03:05:18;6.63;;;2.07;;
5900;SDS011;2976;49.764;9.796;2023-08-07T03:07:44;6.13;;;1.90;;
5900;SDS011;2976;49.764;9.796;2023-08-07T03:10:10;1.97;;;1.67;;
5900;SDS011;2976;49.764;9.796;2023-08-07T03:12:36;2.83;;;1.60;;
5900;SDS011;2976;49.764;9.796;2023-08-07T03:15:03;3.43;;;1.83;;
5900;SDS011;2976;49.764;9.796;2023-08-07T03:17:30;5.73;;;2.60;;
5900;SDS011;2976;49.764;9.796;2023-08-07T03:19:55;5.10;;;2.00;;
5900;SDS011;2976;49.764;9.796;2023-08-07T03:22:21;7.70;;;2.13;;
5900;SDS011;2976;49.764;9.796;2023-08-07T03:24:47;4.50;;;1.50;;
5900;SDS011;2976;49.764;9.796;2023-08-07T03:27:13;3.47;;;1.80;;
5900;SDS011;2976;49.764;9.796;2023-08-07T03:29:39;6.77;;;2.20;;
5900;SDS011;2976;49.764;9.796;2023-08-07T03:32:04;9.63;;;3.80;;
5900;SDS011;2976;49.764;9.796;2023-08-07T03:34:30;6.77;;;2.30;;
5900;SDS011;2976;49.764;9.796;2023-08-07T03:36:55;5.53;;;2.27;;
5900;SDS011;2976;49.764;9.796;2023-08-07T03:39:21;5.60;;;2.27;;
5900;SDS011;2976;49.764;9.796;2023-08-07T03:41:47;5.53;;;2.10;;
5900;SDS011;2976;49.764;9.796;2023-08-07T03:44:12;4.67;;;2.13;;
5900;SDS011;2976;49.764;9.796;2023-08-07T03:46:38;3.50;;;1.90;;
5900;SDS011;2976;49.764;9.796;2023-08-07T03:49:03;3.90;;;2.20;;
5900;SDS011;2976;49.764;9.796;2023-08-07T03:51:29;6.33;;;2.77;;
5900;SDS011;2976;49.764;9.796;2023-08-07T03:53:55;9.87;;;2.70;;
5900;SDS011;2976;49.764;9.796;2023-08-07T03:56:21;9.33;;;3.27;;
5900;SDS011;2976;49.764;9.796;2023-08-07T03:58:46;14.17;;;2.67;;
5900;SDS011;2976;49.764;9.796;2023-08-07T04:01:14;7.63;;;2.33;;
5900;SDS011;2976;49.764;9.796;2023-08-07T04:03:40;7.23;;;3.07;;
5900;SDS011;2976;49.764;9.796;2023-08-07T04:06:05;7.70;;;2.30;;
5900;SDS011;2976;49.764;9.796;2023-08-07T04:08:31;5.23;;;2.27;;
5900;SDS011;2976;49.764;9.796;2023-08-07T04:11:03;5.90;;;3.03;;
5900;SDS011;2976;49.764;9.796;2023-08-07T04:13:29;4.17;;;2.20;;
5900;SDS011;2976;49.764;9.796;2023-08-07T04:15:56;5.17;;;2.40;;
5900;SDS011;2976;49.764;9.796;2023-08-07T04:18:22;6.90;;;2.10;;
5900;SDS011;2976;49.764;9.796;2023-08-07T04:20:51;8.80;;;2.10;;
5900;SDS011;2976;49.764;9.796;2023-08-07T04:23:18;6.17;;;2.70;;
5900;SDS011;2976;49.764;9.796;2023-08-07T04:25:44;10.07;;;2.63;;
5900;SDS011;2976;49.764;9.796;2023-08-07T04:28:11;11.90;;;3.20;;
5900;SDS011;2976;49.764;9.796;2023-08-07T04:30:37;4.20;;;2.23;;
5900;SDS011;2976;49.764;9.796;2023-08-07T04:33:02;3.80;;;2.60;;
5900;SDS011;2976;49.764;9.796;2023-08-07T04:35:28;7.30;;;2.63;;
5900;SDS011;2976;49.764;9.796;2023-08-07T04:37:53;7.70;;;2.63;;
5900;SDS011;2976;49.764;9.796;2023-08-07T04:40:19;8.60;;;2.80;;
5900;SDS011;2976;49.764;9.796;2023-08-07T04:42:45;5.90;;;2.30;;
5900;SDS011;2976;49.764;9.796;2023-08-07T04:45:10;9.53;;;2.63;;
5900;SDS011;2976;49.764;9.796;2023-08-07T04:47:36;8.77;;;2.37;;
5900;SDS011;2976;49.764;9.796;2023-08-07T04:50:01;8.87;;;1.90;;
5900;SDS011;2976;49.764;9.796;2023-08-07T04:52:27;4.73;;;2.30;;
5900;SDS011;2976;49.764;9.796;2023-08-07T04:54:53;4.23;;;2.67;;
5900;SDS011;2976;49.764;9.796;2023-08-07T04:57:18;6.10;;;2.63;;
5900;SDS011;2976;49.764;9.796;2023-08-07T04:59:44;4.77;;;2.40;;
5900;SDS011;2976;49.764;9.796;2023-08-07T05:02:09;2.53;;;2.20;;
5900;SDS011;2976;49.764;9.796;2023-08-07T05:04:35;2.93;;;2.23;;
5900;SDS011;2976;49.764;9.796;2023-08-07T05:07:00;4.57;;;2.00;;
5900;SDS011;2976;49.764;9.796;2023-08-07T05:09:26;7.60;;;2.27;;
5900;SDS011;2976;49.764;9.796;2023-08-07T05:11:51;8.43;;;2.57;;
5900;SDS011;2976;49.764;9.796;2023-08-07T05:14:17;9.70;;;2.67;;
5900;SDS011;2976;49.764;9.796;2023-08-07T05:16:43;7.93;;;2.27;;
5900;SDS011;2976;49.764;9.796;2023-08-07T05:19:08;7.53;;;2.20;;
5900;SDS011;2976;49.764;9.796;2023-08-07T05:21:34;14.80;;;5.77;;
5900;SDS011;2976;49.764;9.796;2023-08-07T05:23:59;7.47;;;2.60;;
5900;SDS011;2976;49.764;9.796;2023-08-07T05:26:25;6.40;;;2.30;;
5900;SDS011;2976;49.764;9.796;2023-08-07T05:28:50;12.33;;;3.20;;
5900;SDS011;2976;49.764;9.796;2023-08-07T05:31:17;8.23;;;2.40;;
5900;SDS011;2976;49.764;9.796;2023-08-07T05:33:43;3.20;;;2.77;;
5900;SDS011;2976;49.764;9.796;2023-08-07T05:36:08;2.80;;;2.03;;
5900;SDS011;2976;49.764;9.796;2023-08-07T05:38:34;4.33;;;2.50;;
5900;SDS011;2976;49.764;9.796;2023-08-07T05:40:59;5.57;;;2.43;;
5900;SDS011;2976;49.764;9.796;2023-08-07T05:43:25;5.50;;;1.93;;
5900;SDS011;2976;49.764;9.796;2023-08-07T05:45:50;5.90;;;2.83;;
5900;SDS011;2976;49.764;9.796;2023-08-07T05:48:16;6.50;;;2.40;;
5900;SDS011;2976;49.764;9.796;2023-08-07T05:50:42;8.70;;;3.00;;
5900;SDS011;2976;49.764;9.796;2023-08-07T05:53:07;4.50;;;1.80;;
5900;SDS011;2976;49.764;9.796;2023-08-07T05:55:33;5.73;;;2.63;;
5900;SDS011;2976;49.764;9.796;2023-08-07T05:57:59;8.77;;;3.17;;
5900;SDS011;2976;49.764;9.796;2023-08-07T06:00:25;10.50;;;2.77;;
5900;SDS011;2976;49.764;9.796;2023-08-07T06:02:50;5.60;;;2.23;;
5900;SDS011;2976;49.764;9.796;2023-08-07T06:05:16;6.83;;;2.37;;
5900;SDS011;2976;49.764;9.796;2023-08-07T06:07:42;7.60;;;2.13;;
5900;SDS011;2976;49.764;9.796;2023-08-07T06:10:08;7.30;;;2.20;;
5900;SDS011;2976;49.764;9.796;2023-08-07T06:12:33;6.57;;;2.10;;
5900;SDS011;2976;49.764;9.796;2023-08-07T06:14:59;13.63;;;2.93;;
5900;SDS011;2976;49.764;9.796;2023-08-07T06:17:25;9.07;;;2.60;;
5900;SDS011;2976;49.764;9.796;2023-08-07T06:19:50;5.73;;;2.00;;
5900;SDS011;2976;49.764;9.796;2023-08-07T06:22:17;8.90;;;3.40;;
5900;SDS011;2976;49.764;9.796;2023-08-07T06:24:42;14.13;;;1.93;;
5900;SDS011;2976;49.764;9.796;2023-08-07T06:27:08;3.97;;;1.80;;
5900;SDS011;2976;49.764;9.796;2023-08-07T06:29:33;3.60;;;2.10;;
5900;SDS011;2976;49.764;9.796;2023-08-07T06:31:59;6.30;;;2.67;;
5900;SDS011;2976;49.764;9.796;2023-08-07T06:34:24;4.67;;;1.73;;
5900;SDS011;2976;49.764;9.796;2023-08-07T06:36:50;5.77;;;1.70;;
5900;SDS011;2976;49.764;9.796;2023-08-07T06:39:15;2.37;;;1.23;;
5900;SDS011;2976;49.764;9.796;2023-08-07T06:41:41;5.70;;;1.97;;
5900;SDS011;2976;49.764;9.796;2023-08-07T06:44:07;6.70;;;1.80;;
5900;SDS011;2976;49.764;9.796;2023-08-07T06:46:32;4.20;;;2.33;;
5900;SDS011;2976;49.764;9.796;2023-08-07T06:48:58;9.47;;;2.40;;
5900;SDS011;2976;49.764;9.796;2023-08-07T06:51:23;4.90;;;2.20;;
5900;SDS011;2976;49.764;9.796;2023-08-07T06:53:49;9.50;;;2.10;;
5900;SDS011;2976;49.764;9.796;2023-08-07T06:56:14;5.27;;;2.00;;
5900;SDS011;2976;49.764;9.796;2023-08-07T06:58:40;6.03;;;2.10;;
5900;SDS011;2976;49.764;9.796;2023-08-07T07:01:05;4.47;;;2.27;;
5900;SDS011;2976;49.764;9.796;2023-08-07T07:03:31;2.13;;;1.63;;
5900;SDS011;2976;49.764;9.796;2023-08-07T07:05:56;6.17;;;1.80;;
5900;SDS011;2976;49.764;9.796;2023-08-07T07:08:22;5.53;;;2.00;;
5900;SDS011;2976;49.764;9.796;2023-08-07T07:10:48;4.73;;;2.40;;
5900;SDS011;2976;49.764;9.796;2023-08-07T07:13:14;9.40;;;2.63;;
5900;SDS011;2976;49.764;9.796;2023-08-07T07:15:39;6.43;;;2.00;;
5900;SDS011;2976;49.764;9.796;2023-08-07T07:18:05;12.80;;;2.37;;
5900;SDS011;2976;49.764;9.796;2023-08-07T07:20:31;2.00;;;1.90;;
5900;SDS011;2976;49.764;9.796;2023-08-07T07:22:56;1.40;;;1.30;;
5900;SDS011;2976;49.764;9.796;2023-08-07T07:25:22;5.63;;;1.67;;
5900;SDS011;2976;49.764;9.796;2023-08-07T07:27:47;6.87;;;2.30;;
5900;SDS011;2976;49.764;9.796;2023-08-07T07:30:13;5.27;;;1.80;;
5900;SDS011;2976;49.764;9.796;2023-08-07T07:32:38;8.17;;;2.47;;
5900;SDS011;2976;49.764;9.796;2023-08-07T07:35:04;8.93;;;2.30;;
5900;SDS011;2976;49.764;9.796;2023-08-07T07:37:30;13.53;;;2.37;;
5900;SDS011;2976;49.764;9.796;2023-08-07T07:39:56;3.07;;;1.83;;
5900;SDS011;2976;49.764;9.796;2023-08-07T07:42:22;11.67;;;3.07;;
5900;SDS011;2976;49.764;9.796;2023-08-07T07:44:47;3.33;;;1.90;;
5900;SDS011;2976;49.764;9.796;2023-08-07T07:47:13;3.00;;;2.80;;
5900;SDS011;2976;49.764;9.796;2023-08-07T07:49:39;6.33;;;1.87;;
5900;SDS011;2976;49.764;9.796;2023-08-07T07:52:04;6.03;;;1.67;;
5900;SDS011;2976;49.764;9.796;2023-08-07T07:54:31;6.63;;;1.60;;
5900;SDS011;2976;49.764;9.796;2023-08-07T07:56:57;3.77;;;1.87;;
5900;SDS011;2976;49.764;9.796;2023-08-07T07:59:22;6.77;;;2.77;;
5900;SDS011;2976;49.764;9.796;2023-08-07T08:01:48;2.63;;;1.20;;
5900;SDS011;2976;49.764;9.796;2023-08-07T08:04:14;3.53;;;1.53;;
5900;SDS011;2976;49.764;9.796;2023-08-07T08:06:40;1.20;;;1.10;;
5900;SDS011;2976;49.764;9.796;2023-08-07T08:09:05;4.67;;;1.70;;
5900;SDS011;2976;49.764;9.796;2023-08-07T08:11:34;4.03;;;1.63;;
5900;SDS011;2976;49.764;9.796;2023-08-07T08:13:59;2.60;;;1.40;;
5900;SDS011;2976;49.764;9.796;2023-08-07T08:16:25;2.93;;;1.37;;
5900;SDS011;2976;49.764;9.796;2023-08-07T08:18:50;6.03;;;1.47;;
5900;SDS011;2976;49.764;9.796;2023-08-07T08:21:16;3.90;;;2.30;;
5900;SDS011;2976;49.764;9.796;2023-08-07T08:23:41;5.83;;;2.03;;
5900;SDS011;2976;49.764;9.796;2023-08-07T08:26:07;2.70;;;2.07;;
5900;SDS011;2976;49.764;9.796;2023-08-07T08:28:32;2.93;;;1.57;;
5900;SDS011;2976;49.764;9.796;2023-08-07T08:30:58;1.97;;;1.50;;
5900;SDS011;2976;49.764;9.796;2023-08-07T08:33:23;2.70;;;1.70;;
5900;SDS011;2976;49.764;9.796;2023-08-07T08:35:49;3.30;;;1.60;;
5900;SDS011;2976;49.764;9.796;2023-08-07T08:38:15;4.20;;;1.70;;
5900;SDS011;2976;49.764;9.796;2023-08-07T08:40:41;1.60;;;1.50;;
5900;SDS011;2976;49.764;9.796;2023-08-07T08:43:09;3.13;;;1.20;;
5900;SDS011;2976;49.764;9.796;2023-08-07T08:45:37;7.60;;;2.10;;
5900;SDS011;2976;49.764;9.796;2023-08-07T08:48:04;4.53;;;2.10;;
5900;SDS011;2976;49.764;9.796;2023-08-07T08:50:32;2.97;;;1.60;;
5900;SDS011;2976;49.764;9.796;2023-08-07T08:52:59;6.90;;;2.50;;
5900;SDS011;2976;49.764;9.796;2023-08-07T08:55:25;2.57;;;1.67;;
5900;SDS011;2976;49.764;9.796;2023-08-07T08:57:52;6.33;;;2.07;;
5900;SDS011;2976;49.764;9.796;2023-08-07T09:00:19;8.57;;;2.17;;
5900;SDS011;2976;49.764;9.796;2023-08-07T09:02:48;2.60;;;1.60;;
5900;SDS011;2976;49.764;9.796;2023-08-07T09:05:15;6.17;;;1.80;;
5900;SDS011;2976;49.764;9.796;2023-08-07T09:07:42;3.80;;;1.70;;
5900;SDS011;2976;49.764;9.796;2023-08-07T09:10:08;7.40;;;2.10;;
5900;SDS011;2976;49.764;9.796;2023-08-07T09:12:36;2.13;;;1.93;;
5900;SDS011;2976;49.764;9.796;2023-08-07T09:15:05;5.60;;;1.90;;
5900;SDS011;2976;49.764;9.796;2023-08-07T09:17:33;7.27;;;1.87;;
5900;SDS011;2976;49.764;9.796;2023-08-07T09:20:03;6.60;;;1.70;;
5900;SDS011;2976;49.764;9.796;2023-08-07T09:22:31;7.53;;;2.10;;
5900;SDS011;2976;49.764;9.796;2023-08-07T09:24:57;1.60;;;1.50;;
5900;SDS011;2976;49.764;9.796;2023-08-07T09:27:25;3.97;;;2.40;;
5900;SDS011;2976;49.764;9.796;2023-08-07T09:29:50;4.30;;;1.80;;
5900;SDS011;2976;49.764;9.796;2023-08-07T09:32:16;8.60;;;1.80;;
5900;SDS011;2976;49.764;9.796;2023-08-07T09:34:43;12.50;;;1.63;;
5900;SDS011;2976;49.764;9.796;2023-08-07T09:37:09;4.50;;;2.20;;
5900;SDS011;2976;49.764;9.796;2023-08-07T09:39:35;3.40;;;1.90;;
5900;SDS011;2976;49.764;9.796;2023-08-07T09:42:02;8.23;;;2.00;;
5900;SDS011;2976;49.764;9.796;2023-08-07T09:44:38;3.90;;;1.90;;
5900;SDS011;2976;49.764;9.796;2023-08-07T09:47:11;2.40;;;1.97;;
5900;SDS011;2976;49.764;9.796;2023-08-07T09:49:41;4.20;;;1.90;;
5900;SDS011;2976;49.764;9.796;2023-08-07T09:52:08;1.27;;;1.17;;
5900;SDS011;2976;49.764;9.796;2023-08-07T09:54:35;6.93;;;1.73;;
5900;SDS011;2976;49.764;9.796;2023-08-07T09:57:01;3.87;;;1.70;;
5900;SDS011;2976;49.764;9.796;2023-08-07T09:59:28;2.00;;;1.43;;
5900;SDS011;2976;49.764;9.796;2023-08-07T10:01:54;10.83;;;2.23;;
5900;SDS011;2976;49.764;9.796;2023-08-07T10:04:21;3.33;;;1.43;;
5900;SDS011;2976;49.764;9.796;2023-08-07T10:06:47;2.33;;;1.60;;
5900;SDS011;2976;49.764;9.796;2023-08-07T10:09:14;1.60;;;1.40;;
5900;SDS011;2976;49.764;9.796;2023-08-07T10:11:40;6.93;;;2.00;;
5900;SDS011;2976;49.764;9.796;2023-08-07T10:14:06;2.20;;;1.20;;
5900;SDS011;2976;49.764;9.796;2023-08-07T10:16:34;4.23;;;1.73;;
5900;SDS011;2976;49.764;9.796;2023-08-07T10:19:04;2.20;;;1.30;;
5900;SDS011;2976;49.764;9.796;2023-08-07T10:21:30;2.00;;;1.80;;
5900;SDS011;2976;49.764;9.796;2023-08-07T10:24:00;1.90;;;1.57;;
5900;SDS011;2976;49.764;9.796;2023-08-07T10:26:28;4.97;;;1.73;;
5900;SDS011;2976;49.764;9.796;2023-08-07T10:28:55;3.73;;;1.57;;
5900;SDS011;2976;49.764;9.796;2023-08-07T10:31:23;4.73;;;1.40;;
5900;SDS011;2976;49.764;9.796;2023-08-07T10:33:49;4.83;;;1.87;;
5900;SDS011;2976;49.764;9.796;2023-08-07T10:36:16;3.30;;;1.50;;
5900;SDS011;2976;49.764;9.796;2023-08-07T10:38:42;4.50;;;1.67;;
5900;SDS011;2976;49.764;9.796;2023-08-07T10:41:14;1.80;;;1.10;;
5900;SDS011;2976;49.764;9.796;2023-08-07T10:43:40;6.70;;;2.07;;
5900;SDS011;2976;49.764;9.796;2023-08-07T10:48:46;4.93;;;1.53;;
5900;SDS011;2976;49.764;9.796;2023-08-07T10:51:18;3.60;;;2.13;;
5900;SDS011;2976;49.764;9.796;2023-08-07T10:53:45;5.77;;;1.33;;
5900;SDS011;2976;49.764;9.796;2023-08-07T10:59:17;3.60;;;1.47;;
5900;SDS011;2976;49.764;9.796;2023-08-07T11:01:42;3.30;;;1.57;;
5900;SDS011;2976;49.764;9.796;2023-08-07T11:04:12;1.93;;;1.70;;
5900;SDS011;2976;49.764;9.796;2023-08-07T11:06:39;3.53;;;1.60;;
5900;SDS011;2976;49.764;9.796;2023-08-07T11:09:06;5.23;;;1.47;;
5900;SDS011;2976;49.764;9.796;2023-08-07T11:11:40;5.30;;;1.90;;
5900;SDS011;2976;49.764;9.796;2023-08-07T11:14:07;3.40;;;1.70;;
5900;SDS011;2976;49.764;9.796;2023-08-07T11:16:34;6.30;;;1.80;;
5900;SDS011;2976;49.764;9.796;2023-08-07T11:19:00;2.37;;;1.43;;
5900;SDS011;2976;49.764;9.796;2023-08-07T11:21:25;3.70;;;1.80;;
5900;SDS011;2976;49.764;9.796;2023-08-07T11:23:51;8.90;;;2.00;;
5900;SDS011;2976;49.764;9.796;2023-08-07T11:26:17;2.17;;;1.97;;
5900;SDS011;2976;49.764;9.796;2023-08-07T11:28:46;4.13;;;1.77;;
5900;SDS011;2976;49.764;9.796;2023-08-07T11:31:12;2.93;;;1.90;;
5900;SDS011;2976;49.764;9.796;2023-08-07T11:33:38;2.23;;;1.50;;
5900;SDS011;2976;49.764;9.796;2023-08-07T11:36:09;3.07;;;2.30;;
5900;SDS011;2976;49.764;9.796;2023-08-07T11:38:40;2.00;;;1.57;;
5900;SDS011;2976;49.764;9.796;2023-08-07T11:41:10;4.20;;;1.33;;
5900;SDS011;2976;49.764;9.796;2023-08-07T11:43:37;1.20;;;1.10;;
5900;SDS011;2976;49.764;9.796;2023-08-07T11:46:03;1.60;;;1.37;;
5900;SDS011;2976;49.764;9.796;2023-08-07T11:48:31;2.73;;;1.20;;
5900;SDS011;2976;49.764;9.796;2023-08-07T11:50:58;2.70;;;1.67;;
5900;SDS011;2976;49.764;9.796;2023-08-07T11:53:25;6.23;;;1.57;;
5900;SDS011;2976;49.764;9.796;2023-08-07T11:55:52;2.20;;;1.30;;
5900;SDS011;2976;49.764;9.796;2023-08-07T11:58:20;2.03;;;1.60;;
5900;SDS011;2976;49.764;9.796;2023-08-07T12:00:47;1.63;;;1.30;;
5900;SDS011;2976;49.764;9.796;2023-08-07T12:06:18;1.40;;;1.30;;
5900;SDS011;2976;49.764;9.796;2023-08-07T12:08:44;4.73;;;1.50;;
5900;SDS011;2976;49.764;9.796;2023-08-07T12:11:10;2.83;;;1.93;;
5900;SDS011;2976;49.764;9.796;2023-08-07T12:13:37;2.93;;;1.30;;
5900;SDS011;2976;49.764;9.796;2023-08-07T12:16:04;1.90;;;1.10;;
5900;SDS011;2976;49.764;9.796;2023-08-07T12:18:31;2.83;;;1.50;;
5900;SDS011;2976;49.764;9.796;2023-08-07T12:21:01;4.43;;;1.63;;
5900;SDS011;2976;49.764;9.796;2023-08-07T12:23:28;1.80;;;1.20;;
5900;SDS011;2976;49.764;9.796;2023-08-07T12:25:54;4.80;;;1.47;;
5900;SDS011;2976;49.764;9.796;2023-08-07T12:28:20;4.37;;;1.70;;
5900;SDS011;2976;49.764;9.796;2023-08-07T12:30:46;1.20;;;1.10;;
5900;SDS011;2976;49.764;9.796;2023-08-07T12:33:12;2.00;;;1.43;;
5900;SDS011;2976;49.764;9.796;2023-08-07T12:35:37;1.87;;;1.30;;
5900;SDS011;2976;49.764;9.796;2023-08-07T12:38:03;3.30;;;1.67;;
5900;SDS011;2976;49.764;9.796;2023-08-07T12:40:29;5.97;;;1.80;;
5900;SDS011;2976;49.764;9.796;2023-08-07T12:42:56;3.63;;;1.77;;
5900;SDS011;2976;49.764;9.796;2023-08-07T12:45:22;1.73;;;1.33;;
5900;SDS011;2976;49.764;9.796;2023-08-07T12:47:48;2.60;;;1.73;;
5900;SDS011;2976;49.764;9.796;2023-08-07T12:50:14;2.10;;;1.50;;
5900;SDS011;2976;49.764;9.796;2023-08-07T12:52:40;6.37;;;2.17;;
5900;SDS011;2976;49.764;9.796;2023-08-07T12:55:06;3.00;;;1.73;;
5900;SDS011;2976;49.764;9.796;2023-08-07T12:57:33;2.23;;;1.80;;
5900;SDS011;2976;49.764;9.796;2023-08-07T12:59:58;4.40;;;1.37;;
5900;SDS011;2976;49.764;9.796;2023-08-07T13:02:24;1.83;;;1.40;;
5900;SDS011;2976;49.764;9.796;2023-08-07T13:04:49;7.30;;;2.20;;
5900;SDS011;2976;49.764;9.796;2023-08-07T13:07:16;3.33;;;1.33;;
5900;SDS011;2976;49.764;9.796;2023-08-07T13:09:42;5.07;;;2.13;;
5900;SDS011;2976;49.764;9.796;2023-08-07T13:12:08;1.83;;;1.63;;
5900;SDS011;2976;49.764;9.796;2023-08-07T13:14:33;3.90;;;1.97;;
5900;SDS011;2976;49.764;9.796;2023-08-07T13:16:59;2.20;;;1.40;;
5900;SDS011;2976;49.764;9.796;2023-08-07T13:19:25;6.40;;;1.70;;
5900;SDS011;2976;49.764;9.796;2023-08-07T13:21:51;7.67;;;1.97;;
5900;SDS011;2976;49.764;9.796;2023-08-07T13:24:16;7.07;;;1.77;;
5900;SDS011;2976;49.764;9.796;2023-08-07T13:26:42;4.67;;;2.07;;
5900;SDS011;2976;49.764;9.796;2023-08-07T13:29:11;3.23;;;1.80;;
5900;SDS011;2976;49.764;9.796;2023-08-07T13:31:37;2.87;;;2.10;;
5900;SDS011;2976;49.764;9.796;2023-08-07T13:34:02;2.87;;;1.90;;
5900;SDS011;2976;49.764;9.796;2023-08-07T13:36:33;9.30;;;2.53;;
5900;SDS011;2976;49.764;9.796;2023-08-07T13:39:02;3.17;;;1.90;;
5900;SDS011;2976;49.764;9.796;2023-08-07T13:41:28;3.90;;;2.23;;
5900;SDS011;2976;49.764;9.796;2023-08-07T13:43:53;7.50;;;2.30;;
5900;SDS011;2976;49.764;9.796;2023-08-07T13:46:19;6.33;;;1.77;;
5900;SDS011;2976;49.764;9.796;2023-08-07T13:48:44;3.10;;;2.03;;
5900;SDS011;2976;49.764;9.796;2023-08-07T13:51:10;2.23;;;1.67;;
5900;SDS011;2976;49.764;9.796;2023-08-07T13:53:36;5.33;;;1.80;;
5900;SDS011;2976;49.764;9.796;2023-08-07T13:56:02;1.90;;;1.80;;
5900;SDS011;2976;49.764;9.796;2023-08-07T13:58:28;3.83;;;2.17;;
5900;SDS011;2976;49.764;9.796;2023-08-07T14:00:54;5.53;;;2.00;;
5900;SDS011;2976;49.764;9.796;2023-08-07T14:03:20;3.57;;;2.00;;
5900;SDS011;2976;49.764;9.796;2023-08-07T14:05:46;3.03;;;1.80;;
5900;SDS011;2976;49.764;9.796;2023-08-07T14:08:12;7.17;;;1.90;;
5900;SDS011;2976;49.764;9.796;2023-08-07T14:10:37;2.50;;;2.23;;
5900;SDS011;2976;49.764;9.796;2023-08-07T14:13:05;3.23;;;2.00;;
5900;SDS011;2976;49.764;9.796;2023-08-07T14:15:31;2.13;;;1.83;;
5900;SDS011;2976;49.764;9.796;2023-08-07T14:17:56;2.47;;;1.60;;
5900;SDS011;2976;49.764;9.796;2023-08-07T14:20:22;4.10;;;1.90;;
5900;SDS011;2976;49.764;9.796;2023-08-07T14:22:48;2.23;;;1.90;;
5900;SDS011;2976;49.764;9.796;2023-08-07T14:25:14;2.80;;;2.23;;
5900;SDS011;2976;49.764;9.796;2023-08-07T14:27:40;2.73;;;1.47;;
5900;SDS011;2976;49.764;9.796;2023-08-07T14:30:06;2.53;;;1.47;;
5900;SDS011;2976;49.764;9.796;2023-08-07T14:32:32;2.27;;;1.47;;
5900;SDS011;2976;49.764;9.796;2023-08-07T14:34:57;3.60;;;1.83;;
5900;SDS011;2976;49.764;9.796;2023-08-07T14:37:23;3.50;;;1.83;;
5900;SDS011;2976;49.764;9.796;2023-08-07T14:39:48;2.03;;;1.40;;
5900;SDS011;2976;49.764;9.796;2023-08-07T14:42:14;1.90;;;1.37;;
5900;SDS011;2976;49.764;9.796;2023-08-07T14:44:40;4.00;;;1.60;;
5900;SDS011;2976;49.764;9.796;2023-08-07T14:47:05;6.53;;;1.83;;
5900;SDS011;2976;49.764;9.796;2023-08-07T14:49:31;4.43;;;1.70;;
5900;SDS011;2976;49.764;9.796;2023-08-07T14:51:56;3.73;;;2.10;;
5900;SDS011;2976;49.764;9.796;2023-08-07T14:54:22;3.37;;;1.90;;
5900;SDS011;2976;49.764;9.796;2023-08-07T14:56:48;1.80;;;1.20;;
5900;SDS011;2976;49.764;9.796;2023-08-07T14:59:14;3.90;;;1.87;;
5900;SDS011;2976;49.764;9.796;2023-08-07T15:01:40;4.27;;;1.50;;
5900;SDS011;2976;49.764;9.796;2023-08-07T15:04:06;5.83;;;2.10;;
5900;SDS011;2976;49.764;9.796;2023-08-07T15:06:31;4.00;;;2.10;;
5900;SDS011;2976;49.764;9.796;2023-08-07T15:08:58;3.53;;;1.90;;
5900;SDS011;2976;49.764;9.796;2023-08-07T15:11:23;2.60;;;1.40;;
5900;SDS011;2976;49.764;9.796;2023-08-07T15:13:49;6.63;;;1.70;;
5900;SDS011;2976;49.764;9.796;2023-08-07T15:16:14;2.70;;;1.20;;
5900;SDS011;2976;49.764;9.796;2023-08-07T15:18:40;5.07;;;1.20;;
5900;SDS011;2976;49.764;9.796;2023-08-07T15:21:06;4.07;;;1.70;;
5900;SDS011;2976;49.764;9.796;2023-08-07T15:23:32;4.57;;;1.50;;
5900;SDS011;2976;49.764;9.796;2023-08-07T15:25:57;3.23;;;1.60;;